createdAt,value
2022-11-14T00:00:28.577Z,102548.31
2022-11-14T00:01:48.842Z,102543.78
2022-11-14T00:03:10.781Z,102544.78
2022-11-14T00:04:30.883Z,102544.38
2022-11-14T00:05:51.270Z,102541.06
2022-11-14T00:07:11.400Z,102545.09
2022-11-14T00:08:31.871Z,102540.22
2022-11-14T00:09:52.278Z,102546.91
2022-11-14T00:11:12.558Z,102537.38
2022-11-14T00:12:33.023Z,102547.06
2022-11-14T00:13:53.222Z,102537.28
2022-11-14T00:15:14.393Z,102532.88
2022-11-14T00:16:34.492Z,102532.88
2022-11-14T00:17:54.697Z,102534.84
2022-11-14T00:19:15.086Z,102533.13
2022-11-14T00:20:35.105Z,102530.69
2022-11-14T00:21:55.337Z,102522.25
2022-11-14T00:23:15.433Z,102521.00
2022-11-14T00:24:35.418Z,102523.47
2022-11-14T00:25:55.664Z,102526.28
2022-11-14T00:27:16.306Z,102521.75
2022-11-14T00:28:36.622Z,102509.78
2022-11-14T00:29:56.881Z,102527.38
2022-11-14T00:31:16.849Z,102522.00
2022-11-14T00:32:37.167Z,102528.34
2022-11-14T00:33:57.660Z,102523.94
2022-11-14T00:35:18.025Z,102523.94
2022-11-14T00:36:38.408Z,102517.09
2022-11-14T00:37:58.846Z,102516.47
2022-11-14T00:39:19.303Z,102525.16
2022-11-14T00:40:39.633Z,102521.50
2022-11-14T00:41:59.778Z,102519.06
2022-11-14T00:43:19.990Z,102516.38
2022-11-14T00:44:40.211Z,102517.34
2022-11-14T00:46:00.466Z,102506.84
2022-11-14T00:47:20.570Z,102508.31
2022-11-14T00:48:40.945Z,102494.63
2022-11-14T00:50:01.118Z,102504.91
2022-11-14T00:51:21.358Z,102501.22
2022-11-14T00:52:41.609Z,102504.91
2022-11-14T00:54:02.021Z,102490.34
2022-11-14T00:55:22.097Z,102474.47
2022-11-14T00:56:42.453Z,102489.84
2022-11-14T00:58:02.870Z,102487.31
2022-11-14T00:59:23.021Z,102469.97
2022-11-14T01:00:43.589Z,102481.94
2022-11-14T01:02:03.955Z,102476.56
2022-11-14T01:03:24.315Z,102479.34
2022-11-14T01:04:44.705Z,102471.44
2022-11-14T01:06:11.158Z,102478.63
2022-11-14T01:07:31.153Z,102483.00
2022-11-14T01:08:52.018Z,102487.53
2022-11-14T01:10:12.326Z,102485.94
2022-11-14T01:11:32.542Z,102493.91
2022-11-14T01:12:52.924Z,102477.53
2022-11-14T01:14:13.182Z,102479.09
2022-11-14T01:15:33.492Z,102478.47
2022-11-14T01:16:53.850Z,102487.91
2022-11-14T01:18:20.421Z,102483.63
2022-11-14T01:19:41.024Z,102465.28
2022-11-14T01:21:04.190Z,102480.09
2022-11-14T01:22:24.416Z,102475.59
2022-11-14T01:23:44.529Z,102474.72
2022-11-14T01:25:05.283Z,102469.47
2022-11-14T01:26:25.696Z,102473.09
2022-11-14T01:27:45.694Z,102455.16
2022-11-14T01:29:05.846Z,102481.16
2022-11-14T01:30:26.142Z,102469.69
2022-11-14T01:31:46.241Z,102467.00
2022-11-14T01:33:07.383Z,102463.00
2022-11-14T01:34:27.535Z,102469.44
2022-11-14T01:35:47.867Z,102457.88
2022-11-14T01:37:08.389Z,102465.53
2022-11-14T01:38:28.782Z,102455.16
2022-11-14T01:39:49.426Z,102463.81
2022-11-14T01:41:13.317Z,102459.19
2022-11-14T01:42:33.693Z,102455.03
2022-11-14T01:43:54.034Z,102456.50
2022-11-14T01:45:51.785Z,102456.25
2022-11-14T01:47:16.514Z,102450.88
2022-11-14T01:48:41.589Z,102445.03
2022-11-14T01:50:05.957Z,102446.72
2022-11-14T01:51:31.526Z,102446.13
2022-11-14T01:52:51.726Z,102452.97
2022-11-14T01:54:17.017Z,102444.28
2022-11-14T01:55:37.589Z,102436.84
2022-11-14T01:57:00.171Z,102440.03
2022-11-14T01:58:22.213Z,102427.94
2022-11-14T01:59:48.921Z,102440.88
2022-11-14T02:01:09.055Z,102438.91
2022-11-14T02:02:29.702Z,102429.53
2022-11-14T02:03:53.111Z,102432.06
2022-11-14T02:05:16.534Z,102427.69
2022-11-14T02:06:37.314Z,102431.09
2022-11-14T02:07:58.287Z,102422.44
2022-11-14T02:09:19.999Z,102441.13
2022-11-14T02:10:40.486Z,102428.66
2022-11-14T02:12:02.532Z,102436.00
2022-11-14T02:13:22.554Z,102439.53
2022-11-14T02:14:45.439Z,102439.03
2022-11-14T02:16:06.693Z,102422.31
2022-11-14T02:17:29.965Z,102430.63
2022-11-14T02:18:51.149Z,102426.56
2022-11-14T02:20:11.473Z,102438.81
2022-11-14T02:21:31.576Z,102434.53
2022-11-14T02:22:51.731Z,102433.06
2022-11-14T02:24:13.518Z,102446.09
2022-11-14T02:25:33.809Z,102436.22
2022-11-14T02:26:54.161Z,102442.47
2022-11-14T02:28:14.433Z,102438.91
2022-11-14T02:29:35.632Z,102436.47
2022-11-14T02:30:56.042Z,102435.59
2022-11-14T02:32:16.474Z,102436.47
2022-11-14T02:33:36.909Z,102431.44
2022-11-14T02:34:57.045Z,102435.59
2022-11-14T02:36:17.203Z,102411.31
2022-11-14T02:37:37.990Z,102434.75
2022-11-14T02:38:58.206Z,102433.91
2022-11-14T02:40:18.632Z,102435.75
2022-11-14T02:41:38.904Z,102432.09
2022-11-14T02:42:59.693Z,102436.72
2022-11-14T02:44:20.641Z,102431.34
2022-11-14T02:45:41.063Z,102420.59
2022-11-14T02:47:01.328Z,102409.47
2022-11-14T02:48:21.699Z,102419.13
2022-11-14T02:49:42.174Z,102425.25
2022-11-14T02:51:02.534Z,102421.44
2022-11-14T02:52:22.987Z,102422.56
2022-11-14T02:53:43.240Z,102403.28
2022-11-14T02:55:05.152Z,102415.34
2022-11-14T02:56:25.536Z,102406.44
2022-11-14T02:57:45.955Z,102391.16
2022-11-14T02:59:06.257Z,102390.91
2022-11-14T03:00:26.829Z,102403.75
2022-11-14T03:01:47.476Z,102392.88
2022-11-14T03:03:07.778Z,102394.81
2022-11-14T03:04:28.027Z,102389.34
2022-11-14T03:05:48.398Z,102391.31
2022-11-14T03:07:08.850Z,102389.47
2022-11-14T03:08:29.944Z,102388.47
2022-11-14T03:09:50.567Z,102392.28
2022-11-14T03:11:11.022Z,102381.78
2022-11-14T03:12:31.487Z,102384.94
2022-11-14T03:13:51.774Z,102384.94
2022-11-14T03:15:11.988Z,102378.97
2022-11-14T03:16:32.371Z,102385.94
2022-11-14T03:17:52.361Z,102383.25
2022-11-14T03:19:12.491Z,102373.00
2022-11-14T03:20:32.680Z,102379.19
2022-11-14T03:21:52.981Z,102381.53
2022-11-14T03:23:12.941Z,102371.16
2022-11-14T03:24:33.210Z,102377.16
2022-11-14T03:25:53.368Z,102378.84
2022-11-14T03:27:13.555Z,102375.28
2022-11-14T03:28:34.502Z,102374.47
2022-11-14T03:29:54.497Z,102378.22
2022-11-14T03:31:15.416Z,102373.59
2022-11-14T03:32:35.618Z,102380.66
2022-11-14T03:33:55.968Z,102370.78
2022-11-14T03:35:16.226Z,102376.16
2022-11-14T03:36:37.080Z,102371.78
2022-11-14T03:37:57.144Z,102359.81
2022-11-14T03:39:17.356Z,102371.88
2022-11-14T03:40:41.014Z,102350.88
2022-11-14T03:42:01.064Z,102344.69
2022-11-14T03:43:21.910Z,102359.31
2022-11-14T03:44:42.415Z,102356.63
2022-11-14T03:46:04.096Z,102354.94
2022-11-14T03:47:24.579Z,102325.97
2022-11-14T03:48:44.628Z,102348.56
2022-11-14T03:50:05.697Z,102350.41
2022-11-14T03:51:26.032Z,102333.19
2022-11-14T03:52:49.521Z,102345.50
2022-11-14T03:54:09.680Z,102349.56
2022-11-14T03:55:29.959Z,102349.81
2022-11-14T03:56:50.116Z,102341.50
2022-11-14T03:58:10.213Z,102325.13
2022-11-14T03:59:30.325Z,102342.47
2022-11-14T04:00:50.768Z,102336.22
2022-11-14T04:02:10.903Z,102333.94
2022-11-14T04:03:31.013Z,102335.16
2022-11-14T04:04:51.691Z,102324.91
2022-11-14T04:06:11.817Z,102323.19
2022-11-14T04:07:32.166Z,102326.38
2022-11-14T04:08:52.462Z,102313.28
2022-11-14T04:10:12.782Z,102326.97
2022-11-14T04:11:33.080Z,102308.41
2022-11-14T04:12:54.156Z,102303.19
2022-11-14T04:14:14.212Z,102307.31
2022-11-14T04:15:34.778Z,102301.81
2022-11-14T04:16:54.972Z,102299.00
2022-11-14T04:18:15.254Z,102291.94
2022-11-14T04:19:35.729Z,102278.03
2022-11-14T04:20:55.974Z,102285.59
2022-11-14T04:22:16.217Z,102274.63
2022-11-14T04:23:36.258Z,102282.91
2022-11-14T04:24:56.430Z,102282.91
2022-11-14T04:26:16.765Z,102279.34
2022-11-14T04:27:37.137Z,102289.09
2022-11-14T04:28:57.625Z,102284.59
2022-11-14T04:30:17.972Z,102287.28
2022-11-14T04:31:38.188Z,102282.91
2022-11-14T04:32:58.423Z,102285.44
2022-11-14T04:34:18.464Z,102280.06
2022-11-14T04:35:38.805Z,102277.63
2022-11-14T04:36:58.860Z,102289.97
2022-11-14T04:38:19.012Z,102290.47
2022-11-14T04:39:39.203Z,102291.19
2022-11-14T04:40:59.287Z,102294.47
2022-11-14T04:42:19.544Z,102299.84
2022-11-14T04:43:39.828Z,102311.47
2022-11-14T04:45:00.147Z,102306.34
2022-11-14T04:46:20.406Z,102298.38
2022-11-14T04:47:44.401Z,102304.63
2022-11-14T04:49:04.574Z,102308.78
2022-11-14T04:50:24.483Z,102313.16
2022-11-14T04:51:44.497Z,102306.59
2022-11-14T04:53:05.185Z,102312.53
2022-11-14T04:54:25.784Z,102320.50
2022-11-14T04:55:46.132Z,102282.75
2022-11-14T04:57:06.570Z,102311.97
2022-11-14T04:58:27.028Z,102282.28
2022-11-14T04:59:47.379Z,102325.88
2022-11-14T05:01:09.562Z,102333.94
2022-11-14T05:02:33.056Z,102325.63
2022-11-14T05:03:53.260Z,102328.06
2022-11-14T05:05:13.344Z,102328.81
2022-11-14T05:06:33.378Z,102331.25
2022-11-14T05:07:55.029Z,102324.41
2022-11-14T05:09:15.283Z,102321.97
2022-11-14T05:10:35.704Z,102325.88
2022-11-14T05:11:56.033Z,102335.16
2022-11-14T05:13:16.294Z,102316.47
2022-11-14T05:14:36.554Z,102320.00
2022-11-14T05:16:00.510Z,102315.88
2022-11-14T05:17:20.578Z,102316.72
2022-11-14T05:18:45.870Z,102340.13
2022-11-14T05:20:07.580Z,102330.25
2022-11-14T05:21:27.913Z,102319.28
2022-11-14T05:22:48.298Z,102327.81
2022-11-14T05:24:08.775Z,102332.22
2022-11-14T05:25:29.085Z,102329.53
2022-11-14T05:26:49.198Z,102328.66
2022-11-14T05:28:09.465Z,102314.75
2022-11-14T05:29:29.903Z,102321.72
2022-11-14T05:30:49.886Z,102321.47
2022-11-14T05:32:15.090Z,102323.28
2022-11-14T05:33:36.730Z,102314.25
2022-11-14T05:34:57.021Z,102312.22
2022-11-14T05:36:17.550Z,102330.38
2022-11-14T05:37:38.334Z,102320.50
2022-11-14T05:38:58.574Z,102312.53
2022-11-14T05:40:19.409Z,102302.31
2022-11-14T05:41:39.612Z,102306.69
2022-11-14T05:42:59.913Z,102306.59
2022-11-14T05:44:20.159Z,102305.34
2022-11-14T05:45:40.414Z,102287.75
2022-11-14T05:47:00.747Z,102303.66
2022-11-14T05:48:20.935Z,102299.50
2022-11-14T05:49:41.205Z,102304.63
2022-11-14T05:51:03.177Z,102310.13
2022-11-14T05:52:23.473Z,102293.28
2022-11-14T05:53:43.651Z,102304.63
2022-11-14T05:55:04.113Z,102284.72
2022-11-14T05:56:24.460Z,102299.25
2022-11-14T05:57:44.752Z,102300.97
2022-11-14T05:59:05.004Z,102301.06
2022-11-14T06:00:25.872Z,102299.50
2022-11-14T06:01:46.223Z,102291.81
2022-11-14T06:03:06.366Z,102301.94
2022-11-14T06:04:27.336Z,102299.38
2022-11-14T06:05:47.576Z,102293.88
2022-11-14T06:07:07.811Z,102289.50
2022-11-14T06:08:29.973Z,102290.47
2022-11-14T06:09:50.205Z,102291.94
2022-11-14T06:11:13.615Z,102297.31
2022-11-14T06:12:33.942Z,102292.53
2022-11-14T06:13:54.314Z,102289.72
2022-11-14T06:15:14.477Z,102265.31
2022-11-14T06:16:34.601Z,102279.56
2022-11-14T06:17:55.453Z,102289.69
2022-11-14T06:19:15.584Z,102286.19
2022-11-14T06:20:36.621Z,102287.38
2022-11-14T06:21:56.666Z,102282.13
2022-11-14T06:23:20.596Z,102294.56
2022-11-14T06:24:43.791Z,102286.97
2022-11-14T06:26:12.921Z,102288.41
2022-11-14T06:27:33.147Z,102287.03
2022-11-14T06:28:53.862Z,102286.69
2022-11-14T06:30:14.148Z,102284.09
2022-11-14T06:31:34.651Z,102285.59
2022-11-14T06:33:01.000Z,102279.06
2022-11-14T06:34:21.052Z,102292.34
2022-11-14T06:35:41.319Z,102293.00
2022-11-14T06:37:01.594Z,102289.91
2022-11-14T06:38:22.046Z,102286.94
2022-11-14T06:39:42.457Z,102272.94
2022-11-14T06:41:13.127Z,102282.63
2022-11-14T06:42:33.193Z,102277.25
2022-11-14T06:43:54.310Z,102282.84
2022-11-14T06:45:14.590Z,102281.75
2022-11-14T06:46:34.762Z,102276.47
2022-11-14T06:47:59.213Z,102280.34
2022-11-14T06:49:19.290Z,102273.72
2022-11-14T06:50:39.729Z,102280.53
2022-11-14T06:51:59.997Z,102272.34
2022-11-14T06:53:20.247Z,102271.25
2022-11-14T06:54:40.431Z,102275.50
2022-11-14T06:56:07.364Z,102266.59
2022-11-14T06:57:27.339Z,102266.88
2022-11-14T06:58:49.147Z,102259.22
2022-11-14T07:00:09.822Z,102263.09
2022-11-14T07:01:30.366Z,102256.72
2022-11-14T07:02:50.616Z,102264.53
2022-11-14T07:04:10.871Z,102255.47
2022-11-14T07:05:30.972Z,102263.38
2022-11-14T07:06:51.512Z,102257.88
2022-11-14T07:08:11.672Z,102255.19
2022-11-14T07:09:32.247Z,102249.47
2022-11-14T07:10:52.346Z,102255.06
2022-11-14T07:12:12.601Z,102243.84
2022-11-14T07:13:34.414Z,102243.31
2022-11-14T07:14:54.583Z,102241.19
2022-11-14T07:16:14.762Z,102247.31
2022-11-14T07:17:36.347Z,102238.22
2022-11-14T07:18:56.998Z,102238.22
2022-11-14T07:20:18.610Z,102235.41
2022-11-14T07:21:39.160Z,102218.13
2022-11-14T07:22:59.165Z,102216.25
2022-11-14T07:24:19.560Z,102212.31
2022-11-14T07:25:39.620Z,102226.97
2022-11-14T07:28:20.497Z,102228.66
2022-11-14T07:29:40.769Z,102204.38
2022-11-14T07:31:05.256Z,102220.59
2022-11-14T07:32:25.742Z,102217.63
2022-11-14T07:33:46.403Z,102221.44
2022-11-14T07:35:06.789Z,102223.00
2022-11-14T07:36:27.171Z,102223.88
2022-11-14T07:37:47.469Z,102230.09
2022-11-14T07:39:07.764Z,102224.25
2022-11-14T07:40:28.034Z,102225.13
2022-11-14T07:41:48.278Z,102218.88
2022-11-14T07:43:08.752Z,102231.78
2022-11-14T07:44:29.037Z,102231.78
2022-11-14T07:45:49.629Z,102219.59
2022-11-14T07:47:09.905Z,102221.03
2022-11-14T07:48:31.016Z,102226.41
2022-11-14T07:49:51.198Z,102217.88
2022-11-14T07:51:17.570Z,102230.97
2022-11-14T07:52:37.706Z,102236.22
2022-11-14T07:53:57.831Z,102231.78
2022-11-14T07:55:18.328Z,102219.13
2022-11-14T07:56:38.772Z,102224.38
2022-11-14T07:58:02.341Z,102241.72
2022-11-14T07:59:22.556Z,102247.94
2022-11-14T08:00:42.588Z,102242.56
2022-11-14T08:02:03.030Z,102237.19
2022-11-14T08:03:23.393Z,102232.78
2022-11-14T08:04:43.666Z,102231.78
2022-11-14T08:06:05.378Z,102238.16
2022-11-14T08:07:25.864Z,102226.13
2022-11-14T08:08:46.294Z,102233.78
2022-11-14T08:10:07.210Z,102219.88
2022-11-14T08:11:45.675Z,102236.34
2022-11-14T08:14:47.041Z,102222.50
2022-11-14T08:16:13.441Z,102216.50
2022-11-14T08:17:34.512Z,102219.91
2022-11-14T08:18:54.426Z,102223.00
2022-11-14T08:20:14.560Z,102223.28
2022-11-14T08:21:34.785Z,102220.97
2022-11-14T08:23:02.159Z,102240.84
2022-11-14T08:24:22.634Z,102235.22
2022-11-14T08:25:42.770Z,102238.91
2022-11-14T08:27:03.078Z,102231.78
2022-11-14T08:28:23.255Z,102234.50
2022-11-14T08:29:43.427Z,102233.78
2022-11-14T08:31:04.828Z,102241.72
2022-11-14T08:32:25.017Z,102227.06
2022-11-14T08:33:45.166Z,102239.56
2022-11-14T08:35:05.863Z,102235.47
2022-11-14T08:36:25.796Z,102237.19
2022-11-14T08:37:45.904Z,102238.91
2022-11-14T08:39:06.238Z,102233.53
2022-11-14T08:40:26.338Z,102239.75
2022-11-14T08:41:46.653Z,102226.69
2022-11-14T08:43:07.014Z,102231.78
2022-11-14T08:44:27.218Z,102222.16
2022-11-14T08:45:47.163Z,102227.28
2022-11-14T08:47:07.339Z,102230.09
2022-11-14T08:48:27.879Z,102221.03
2022-11-14T08:49:48.672Z,102216.19
2022-11-14T08:51:08.938Z,102221.91
2022-11-14T08:52:29.415Z,102214.38
2022-11-14T08:53:51.508Z,102222.00
2022-11-14T08:55:11.711Z,102220.06
2022-11-14T08:56:31.952Z,102215.06
2022-11-14T08:57:53.826Z,102210.41
2022-11-14T08:59:14.014Z,102208.09
2022-11-14T09:00:34.358Z,102210.53
2022-11-14T09:01:54.554Z,102210.25
2022-11-14T09:03:16.154Z,102202.59
2022-11-14T09:04:36.801Z,102208.56
2022-11-14T09:05:57.519Z,102200.47
2022-11-14T09:07:17.786Z,102207.56
2022-11-14T09:08:38.052Z,102211.25
2022-11-14T09:09:57.913Z,102206.41
2022-11-14T09:11:19.382Z,102203.72
2022-11-14T09:12:39.789Z,102195.75
2022-11-14T09:14:01.478Z,102217.63
2022-11-14T09:15:21.693Z,102214.91
2022-11-14T09:16:42.049Z,102210.41
2022-11-14T09:18:02.730Z,102220.59
2022-11-14T09:19:22.904Z,102213.22
2022-11-14T09:20:42.900Z,102214.38
2022-11-14T09:22:03.157Z,102222.00
2022-11-14T09:23:23.217Z,102217.63
2022-11-14T09:24:43.617Z,102223.00
2022-11-14T09:26:08.563Z,102221.28
2022-11-14T09:27:28.957Z,102212.50
2022-11-14T09:28:48.922Z,102211.91
2022-11-14T09:30:10.130Z,102185.22
2022-11-14T09:31:30.095Z,102220.31
2022-11-14T09:32:51.308Z,102217.78
2022-11-14T09:34:11.412Z,102178.41
2022-11-14T09:35:31.928Z,102195.03
2022-11-14T09:36:51.905Z,102208.22
2022-11-14T09:38:12.284Z,102217.63
2022-11-14T09:39:32.576Z,102220.31
2022-11-14T09:41:10.863Z,102208.56
2022-11-14T09:42:55.848Z,102212.81
2022-11-14T09:44:41.971Z,102214.13
2022-11-14T09:46:03.123Z,102198.53
2022-11-14T09:47:31.441Z,102210.00
2022-11-14T09:48:53.551Z,102201.22
2022-11-14T09:50:19.629Z,102203.03
2022-11-14T09:51:51.093Z,102195.84
2022-11-14T09:53:16.769Z,102192.16
2022-11-14T09:54:58.057Z,102194.56
2022-11-14T09:56:25.408Z,102193.97
2022-11-14T09:57:46.497Z,102186.31
2022-11-14T09:59:11.444Z,102196.09
2022-11-14T10:00:57.013Z,102200.78
2022-11-14T10:02:41.361Z,102193.72
2022-11-14T10:04:23.094Z,102198.97
2022-11-14T10:05:55.075Z,102204.34
2022-11-14T10:07:31.994Z,102201.78
2022-11-14T10:09:11.116Z,102204.34
2022-11-14T10:11:01.001Z,102197.81
2022-11-14T10:12:43.515Z,102194.41
2022-11-14T10:14:18.692Z,102193.44
2022-11-14T10:16:15.598Z,102198.69
2022-11-14T10:17:50.677Z,102193.44
2022-11-14T10:19:26.656Z,102195.28
2022-11-14T10:20:58.369Z,102197.25
2022-11-14T10:22:31.526Z,102191.00
2022-11-14T10:24:05.513Z,102183.09
2022-11-14T10:25:38.239Z,102186.50
2022-11-14T10:27:06.340Z,102187.47
2022-11-14T10:29:04.376Z,102189.03
2022-11-14T10:30:35.846Z,102180.13
2022-11-14T10:32:16.932Z,102185.34
2022-11-14T10:33:47.495Z,102173.31
2022-11-14T10:35:22.021Z,102174.72
2022-11-14T10:36:47.484Z,102182.81
2022-11-14T10:38:07.561Z,102182.81
2022-11-14T10:39:39.094Z,102181.38
2022-11-14T10:41:02.666Z,102181.09
2022-11-14T10:42:31.375Z,102179.41
2022-11-14T10:43:52.761Z,102155.69
2022-11-14T10:45:25.246Z,102170.34
2022-11-14T10:46:54.347Z,102164.09
2022-11-14T10:48:36.682Z,102162.69
2022-11-14T10:50:04.382Z,102157.59
2022-11-14T10:51:32.350Z,102158.44
2022-11-14T10:53:01.076Z,102151.50
2022-11-14T10:54:48.332Z,102154.63
2022-11-14T10:56:12.882Z,102148.25
2022-11-14T10:57:33.048Z,102150.06
2022-11-14T10:58:53.010Z,102141.56
2022-11-14T11:00:19.013Z,102151.34
2022-11-14T11:01:41.748Z,102156.59
2022-11-14T11:03:01.990Z,102146.09
2022-11-14T11:04:36.973Z,102145.25
2022-11-14T11:05:57.855Z,102137.44
2022-11-14T11:07:45.022Z,102144.84
2022-11-14T11:09:43.950Z,102149.66
2022-11-14T11:11:24.234Z,102145.00
2022-11-14T11:12:47.805Z,102139.72
2022-11-14T11:14:18.820Z,102135.63
2022-11-14T11:15:41.465Z,102130.38
2022-11-14T11:17:15.487Z,102129.41
2022-11-14T11:18:37.380Z,102128.69
2022-11-14T11:20:23.886Z,102131.09
2022-11-14T11:21:50.023Z,102092.75
2022-11-14T11:23:10.489Z,102126.53
2022-11-14T11:24:34.150Z,102128.69
2022-11-14T11:26:05.841Z,102130.38
2022-11-14T11:27:30.493Z,102131.22
2022-11-14T11:29:05.163Z,102125.56
2022-11-14T11:30:25.203Z,102110.41
2022-11-14T11:31:55.906Z,102102.56
2022-11-14T11:33:21.809Z,102118.63
2022-11-14T11:34:42.133Z,102125.72
2022-11-14T11:36:13.358Z,102120.44
2022-11-14T11:37:40.332Z,102112.25
2022-11-14T11:39:01.048Z,102111.09
2022-11-14T11:40:25.351Z,102111.38
2022-11-14T11:43:39.853Z,102106.59
2022-11-14T11:45:04.173Z,102107.41
2022-11-14T11:46:53.932Z,102100.91
2022-11-14T11:48:18.670Z,102071.81
2022-11-14T11:49:52.905Z,102109.97
2022-11-14T11:51:22.637Z,102114.38
2022-11-14T11:53:12.798Z,102110.53
2022-11-14T11:54:49.485Z,102119.47
2022-11-14T11:56:13.201Z,102113.38
2022-11-14T11:58:03.066Z,102112.13
2022-11-14T11:59:46.991Z,102116.06
2022-11-14T12:01:10.929Z,102116.19
2022-11-14T12:02:31.230Z,102111.53
2022-11-14T12:03:54.337Z,102109.13
2022-11-14T12:05:17.654Z,102103.19
2022-11-14T12:06:49.377Z,102095.81
2022-11-14T12:08:21.887Z,102087.59
2022-11-14T12:10:09.374Z,102105.44
2022-11-14T12:11:26.652Z,102087.03
2022-11-14T12:12:54.909Z,102095.09
2022-11-14T12:14:40.130Z,102103.31
2022-11-14T12:16:26.506Z,102109.41
2022-11-14T12:18:12.141Z,102089.00
2022-11-14T12:19:52.672Z,102098.34
2022-11-14T12:21:53.065Z,102091.28
2022-11-14T12:23:18.824Z,102097.53
2022-11-14T12:24:58.169Z,102088.16
2022-11-14T12:26:24.127Z,102086.16
2022-11-14T12:28:09.715Z,102072.69
2022-11-14T12:29:49.829Z,102076.25
2022-11-14T12:31:15.201Z,102080.91
2022-11-14T12:32:41.581Z,102078.38
2022-11-14T12:34:27.548Z,102078.09
2022-11-14T12:35:57.937Z,102046.75
2022-11-14T12:37:23.769Z,102072.28
2022-11-14T12:38:46.489Z,102081.06
2022-11-14T12:40:18.783Z,102068.44
2022-11-14T12:41:40.800Z,102073.13
2022-11-14T12:43:02.527Z,102069.59
2022-11-14T12:44:28.553Z,102071.41
2022-11-14T12:45:51.826Z,102071.41
2022-11-14T12:47:23.202Z,102067.88
2022-11-14T12:48:45.180Z,102054.28
2022-11-14T12:50:30.125Z,102064.75
2022-11-14T12:51:51.551Z,102064.75
2022-11-14T12:53:35.969Z,102062.06
2022-11-14T12:54:56.297Z,102052.72
2022-11-14T12:56:31.623Z,102064.03
2022-11-14T12:58:15.680Z,102055.56
2022-11-14T12:59:49.878Z,102041.66
2022-11-14T13:01:53.425Z,102050.03
2022-11-14T13:03:32.966Z,102043.50
2022-11-14T13:05:16.423Z,102046.34
2022-11-14T13:06:42.435Z,102045.78
2022-11-14T13:08:20.694Z,102038.56
2022-11-14T13:10:19.669Z,102048.19
2022-11-14T13:12:03.943Z,102039.28
2022-11-14T13:13:42.737Z,102043.78
2022-11-14T13:15:47.448Z,102024.50
2022-11-14T13:17:36.991Z,102032.88
2022-11-14T13:19:39.242Z,102032.72
2022-11-14T13:21:25.550Z,102024.63
2022-11-14T13:22:46.940Z,102036.56
2022-11-14T13:24:07.713Z,102041.38
2022-11-14T13:25:28.646Z,102034.56
2022-11-14T13:26:52.261Z,102036.56
2022-11-14T13:28:37.150Z,102038.09
2022-11-14T13:29:58.282Z,102046.06
2022-11-14T13:31:25.309Z,102039.97
2022-11-14T13:32:45.734Z,102032.88
2022-11-14T13:34:43.622Z,102034.41
2022-11-14T13:36:05.871Z,102031.00
2022-11-14T13:37:53.244Z,102039.69
2022-11-14T13:39:23.578Z,102038.81
2022-11-14T13:40:52.832Z,102032.88
2022-11-14T13:42:38.340Z,102029.19
2022-11-14T13:44:22.933Z,102023.22
2022-11-14T13:46:10.004Z,102031.44
2022-11-14T13:47:42.195Z,102030.72
2022-11-14T13:49:17.539Z,102020.94
2022-11-14T13:50:40.579Z,102023.09
2022-11-14T13:52:01.317Z,102017.84
2022-11-14T13:53:26.073Z,102024.38
2022-11-14T13:54:47.971Z,102019.00
2022-11-14T13:56:19.361Z,102015.31
2022-11-14T13:58:03.681Z,102010.63
2022-11-14T13:59:27.033Z,102013.31
2022-11-14T14:01:15.713Z,102016.00
2022-11-14T14:02:40.579Z,102013.03
2022-11-14T14:04:09.531Z,102010.63
2022-11-14T14:06:11.121Z,101983.00
2022-11-14T14:07:58.945Z,102010.34
2022-11-14T14:09:32.789Z,102008.34
2022-11-14T14:11:14.241Z,102008.63
2022-11-14T14:12:49.077Z,102003.09
2022-11-14T14:14:20.986Z,101999.56
2022-11-14T14:15:51.894Z,101999.56
2022-11-14T14:17:18.469Z,101974.50
2022-11-14T14:18:47.468Z,101985.25
2022-11-14T14:20:29.743Z,101976.47
2022-11-14T14:22:15.142Z,101980.16
2022-11-14T14:24:05.887Z,101982.53
2022-11-14T14:26:06.057Z,101978.72
2022-11-14T14:28:05.154Z,101982.97
2022-11-14T14:29:28.059Z,101978.03
2022-11-14T14:31:02.201Z,101983.41
2022-11-14T14:32:22.414Z,101978.16
2022-11-14T14:33:47.024Z,101984.69
2022-11-14T14:35:28.784Z,101988.94
2022-11-14T14:36:51.702Z,101987.22
2022-11-14T14:38:21.446Z,101983.81
2022-11-14T14:39:41.453Z,101982.84
2022-11-14T14:41:01.771Z,101984.13
2022-11-14T14:42:22.357Z,101985.53
2022-11-14T14:43:49.482Z,101984.81
2022-11-14T14:45:21.109Z,101981.84
2022-11-14T14:46:40.993Z,101974.06
2022-11-14T14:48:02.760Z,101972.78
2022-11-14T14:49:34.531Z,101980.00
2022-11-14T14:50:56.827Z,101976.47
2022-11-14T14:52:34.187Z,101975.16
2022-11-14T14:53:54.276Z,101968.78
2022-11-14T14:55:23.981Z,101934.41
2022-11-14T14:56:54.113Z,101968.09
2022-11-14T14:58:23.351Z,101972.47
2022-11-14T14:59:44.776Z,101970.66
2022-11-14T15:01:10.941Z,101974.19
2022-11-14T15:02:31.509Z,101963.41
2022-11-14T15:04:02.726Z,101964.56
2022-11-14T15:05:24.076Z,101961.88
2022-11-14T15:06:47.115Z,101962.00
2022-11-14T15:08:14.209Z,101969.09
2022-11-14T15:09:34.310Z,101973.34
2022-11-14T15:10:59.170Z,101964.28
2022-11-14T15:12:19.621Z,101965.41
2022-11-14T15:13:42.350Z,101960.28
2022-11-14T15:15:03.256Z,101961.88
2022-11-14T15:16:24.866Z,101964.69
2022-11-14T15:17:45.586Z,101960.28
2022-11-14T15:19:06.177Z,101969.25
2022-11-14T15:20:28.979Z,101965.69
2022-11-14T15:22:25.718Z,101962.28
2022-11-14T15:23:45.982Z,101960.59
2022-11-14T15:25:17.925Z,101967.09
2022-11-14T15:26:38.662Z,101957.31
2022-11-14T15:28:00.358Z,101952.91
2022-11-14T15:29:21.868Z,101934.50
2022-11-14T15:30:42.013Z,101923.31
2022-11-14T15:32:04.507Z,101921.19
2022-11-14T15:33:31.796Z,101925.69
2022-11-14T15:35:25.721Z,101926.00
2022-11-14T15:37:18.213Z,101929.97
2022-11-14T15:38:45.649Z,101922.88
2022-11-14T15:40:18.622Z,101924.16
2022-11-14T15:41:38.964Z,101912.09
2022-11-14T15:43:02.908Z,101913.81
2022-11-14T15:44:34.371Z,101906.72
2022-11-14T15:45:56.496Z,101882.50
2022-11-14T15:47:27.432Z,101908.72
2022-11-14T15:48:47.705Z,101899.63
2022-11-14T15:50:14.216Z,101896.25
2022-11-14T15:51:52.658Z,101890.00
2022-11-14T15:53:24.753Z,101900.47
2022-11-14T15:54:45.067Z,101890.69
2022-11-14T15:56:05.526Z,101897.06
2022-11-14T15:57:25.811Z,101896.53
2022-11-14T15:58:49.317Z,101881.38
2022-11-14T16:00:14.342Z,101878.53
2022-11-14T16:01:34.935Z,101876.69
2022-11-14T16:02:58.751Z,101869.59
2022-11-14T16:04:25.997Z,101864.22
2022-11-14T16:05:46.306Z,101848.06
2022-11-14T16:07:06.812Z,101845.50
2022-11-14T16:08:27.434Z,101837.59
2022-11-14T16:09:48.846Z,101834.03
2022-11-14T16:11:08.828Z,101845.66
2022-11-14T16:12:29.153Z,101845.78
2022-11-14T16:13:49.486Z,101869.91